sensor_id;sensor_type;location;lat;lon;timestamp;P1;durP1;ratioP1;P2;durP2;ratioP2
25824;SDS011;13658;44.534;18.694;2023-04-05T00:01:30;65.80;;;37.35;;
25824;SDS011;13658;44.534;18.694;2023-04-05T00:03:57;65.65;;;36.65;;
25824;SDS011;13658;44.534;18.694;2023-04-05T00:06:25;62.45;;;34.38;;
25824;SDS011;13658;44.534;18.694;2023-04-05T00:08:59;56.83;;;33.53;;
25824;SDS011;13658;44.534;18.694;2023-04-05T00:11:28;45.53;;;26.05;;
25824;SDS011;13658;44.534;18.694;2023-04-05T00:13:55;57.35;;;32.83;;
25824;SDS011;13658;44.534;18.694;2023-04-05T00:16:23;58.67;;;33.70;;
25824;SDS011;13658;44.534;18.694;2023-04-05T00:18:51;58.95;;;34.42;;
25824;SDS011;13658;44.534;18.694;2023-04-05T00:21:18;55.83;;;31.70;;
25824;SDS011;13658;44.534;18.694;2023-04-05T00:23:49;57.80;;;32.42;;
25824;SDS011;13658;44.534;18.694;2023-04-05T00:26:19;56.53;;;31.55;;
25824;SDS011;13658;44.534;18.694;2023-04-05T00:28:50;52.08;;;30.85;;
25824;SDS011;13658;44.534;18.694;2023-04-05T00:31:17;54.40;;;31.05;;
25824;SDS011;13658;44.534;18.694;2023-04-05T00:33:43;50.08;;;30.65;;
25824;SDS011;13658;44.534;18.694;2023-04-05T00:36:10;55.20;;;30.73;;
25824;SDS011;13658;44.534;18.694;2023-04-05T00:38:37;50.17;;;29.77;;
25824;SDS011;13658;44.534;18.694;2023-04-05T00:41:05;52.55;;;31.23;;
25824;SDS011;13658;44.534;18.694;2023-04-05T00:43:31;55.75;;;31.70;;
25824;SDS011;13658;44.534;18.694;2023-04-05T00:45:57;49.40;;;30.45;;
25824;SDS011;13658;44.534;18.694;2023-04-05T00:48:24;51.53;;;30.17;;
25824;SDS011;13658;44.534;18.694;2023-04-05T00:50:50;51.15;;;30.15;;
25824;SDS011;13658;44.534;18.694;2023-04-05T00:53:17;52.00;;;30.70;;
25824;SDS011;13658;44.534;18.694;2023-04-05T00:55:45;51.92;;;30.23;;
25824;SDS011;13658;44.534;18.694;2023-04-05T00:58:15;56.25;;;31.40;;
25824;SDS011;13658;44.534;18.694;2023-04-05T01:00:45;54.15;;;32.50;;
25824;SDS011;13658;44.534;18.694;2023-04-05T01:03:20;57.90;;;32.60;;
25824;SDS011;13658;44.534;18.694;2023-04-05T01:05:53;59.33;;;34.83;;
25824;SDS011;13658;44.534;18.694;2023-04-05T01:08:31;58.70;;;33.75;;
25824;SDS011;13658;44.534;18.694;2023-04-05T01:11:08;51.33;;;30.95;;
25824;SDS011;13658;44.534;18.694;2023-04-05T01:13:36;60.65;;;34.35;;
25824;SDS011;13658;44.534;18.694;2023-04-05T01:16:02;58.63;;;33.03;;
25824;SDS011;13658;44.534;18.694;2023-04-05T01:18:29;53.67;;;31.27;;
25824;SDS011;13658;44.534;18.694;2023-04-05T01:21:03;52.38;;;31.13;;
25824;SDS011;13658;44.534;18.694;2023-04-05T01:32:27;56.40;;;31.55;;
25824;SDS011;13658;44.534;18.694;2023-04-05T01:35:16;50.50;;;29.73;;
25824;SDS011;13658;44.534;18.694;2023-04-05T01:37:48;50.63;;;29.35;;
25824;SDS011;13658;44.534;18.694;2023-04-05T01:40:21;47.28;;;28.67;;
25824;SDS011;13658;44.534;18.694;2023-04-05T01:42:48;51.95;;;29.60;;
25824;SDS011;13658;44.534;18.694;2023-04-05T01:45:14;49.20;;;29.58;;
25824;SDS011;13658;44.534;18.694;2023-04-05T01:47:40;47.45;;;29.02;;
25824;SDS011;13658;44.534;18.694;2023-04-05T01:50:07;51.00;;;29.77;;
25824;SDS011;13658;44.534;18.694;2023-04-05T01:52:34;48.10;;;28.23;;
25824;SDS011;13658;44.534;18.694;2023-04-05T01:55:00;44.25;;;27.27;;
25824;SDS011;13658;44.534;18.694;2023-04-05T01:57:28;54.00;;;29.67;;
25824;SDS011;13658;44.534;18.694;2023-04-05T01:59:54;50.53;;;29.60;;
25824;SDS011;13658;44.534;18.694;2023-04-05T02:02:20;48.88;;;29.02;;
25824;SDS011;13658;44.534;18.694;2023-04-05T02:04:47;47.53;;;27.80;;
25824;SDS011;13658;44.534;18.694;2023-04-05T02:07:13;49.67;;;29.25;;
25824;SDS011;13658;44.534;18.694;2023-04-05T02:09:39;43.95;;;27.10;;
25824;SDS011;13658;44.534;18.694;2023-04-05T02:12:05;47.28;;;28.70;;
25824;SDS011;13658;44.534;18.694;2023-04-05T02:14:31;45.67;;;28.25;;
25824;SDS011;13658;44.534;18.694;2023-04-05T02:16:58;48.47;;;29.45;;
25824;SDS011;13658;44.534;18.694;2023-04-05T02:19:27;49.47;;;29.50;;
25824;SDS011;13658;44.534;18.694;2023-04-05T02:21:55;48.28;;;28.13;;
25824;SDS011;13658;44.534;18.694;2023-04-05T02:24:21;48.60;;;29.02;;
25824;SDS011;13658;44.534;18.694;2023-04-05T02:26:47;46.97;;;28.77;;
25824;SDS011;13658;44.534;18.694;2023-04-05T02:29:13;48.50;;;28.33;;
25824;SDS011;13658;44.534;18.694;2023-04-05T02:31:40;48.97;;;28.27;;
25824;SDS011;13658;44.534;18.694;2023-04-05T02:34:06;45.83;;;27.85;;
25824;SDS011;13658;44.534;18.694;2023-04-05T02:36:35;49.67;;;29.25;;
25824;SDS011;13658;44.534;18.694;2023-04-05T02:39:02;45.08;;;28.08;;
25824;SDS011;13658;44.534;18.694;2023-04-05T02:41:28;45.63;;;28.83;;
25824;SDS011;13658;44.534;18.694;2023-04-05T02:43:54;46.20;;;27.42;;
25824;SDS011;13658;44.534;18.694;2023-04-05T02:46:20;49.15;;;29.88;;
25824;SDS011;13658;44.534;18.694;2023-04-05T02:48:47;48.53;;;28.50;;
25824;SDS011;13658;44.534;18.694;2023-04-05T02:51:15;49.63;;;28.42;;
25824;SDS011;13658;44.534;18.694;2023-04-05T02:53:41;48.88;;;27.17;;
25824;SDS011;13658;44.534;18.694;2023-04-05T02:56:12;45.83;;;27.35;;
25824;SDS011;13658;44.534;18.694;2023-04-05T02:58:41;42.67;;;25.38;;
25824;SDS011;13658;44.534;18.694;2023-04-05T03:01:08;43.80;;;26.45;;
25824;SDS011;13658;44.534;18.694;2023-04-05T03:03:34;48.10;;;27.60;;
25824;SDS011;13658;44.534;18.694;2023-04-05T03:06:04;52.17;;;26.83;;
25824;SDS011;13658;44.534;18.694;2023-04-05T03:08:38;47.28;;;27.33;;
25824;SDS011;13658;44.534;18.694;2023-04-05T03:11:11;45.33;;;27.63;;
25824;SDS011;13658;44.534;18.694;2023-04-05T03:13:39;44.70;;;27.55;;
25824;SDS011;13658;44.534;18.694;2023-04-05T03:16:12;44.03;;;27.48;;
25824;SDS011;13658;44.534;18.694;2023-04-05T03:18:40;48.50;;;32.08;;
25824;SDS011;13658;44.534;18.694;2023-04-05T03:21:08;45.63;;;28.23;;
25824;SDS011;13658;44.534;18.694;2023-04-05T03:23:38;46.03;;;27.60;;
25824;SDS011;13658;44.534;18.694;2023-04-05T03:26:04;44.78;;;26.52;;
25824;SDS011;13658;44.534;18.694;2023-04-05T03:28:36;44.42;;;29.25;;
25824;SDS011;13658;44.534;18.694;2023-04-05T03:31:05;45.08;;;27.67;;
25824;SDS011;13658;44.534;18.694;2023-04-05T03:33:32;36.90;;;23.45;;
25824;SDS011;13658;44.534;18.694;2023-04-05T03:35:58;38.38;;;23.73;;
25824;SDS011;13658;44.534;18.694;2023-04-05T03:38:27;41.10;;;24.60;;
25824;SDS011;13658;44.534;18.694;2023-04-05T03:41:05;38.80;;;22.63;;
25824;SDS011;13658;44.534;18.694;2023-04-05T03:43:31;35.38;;;22.80;;
25824;SDS011;13658;44.534;18.694;2023-04-05T03:45:57;40.50;;;24.83;;
25824;SDS011;13658;44.534;18.694;2023-04-05T03:48:26;27.52;;;17.30;;
25824;SDS011;13658;44.534;18.694;2023-04-05T03:50:52;37.13;;;22.58;;
25824;SDS011;13658;44.534;18.694;2023-04-05T03:53:19;30.55;;;19.42;;
25824;SDS011;13658;44.534;18.694;2023-04-05T03:55:48;31.75;;;20.58;;
25824;SDS011;13658;44.534;18.694;2023-04-05T03:58:26;32.40;;;21.23;;
25824;SDS011;13658;44.534;18.694;2023-04-05T04:00:53;24.48;;;14.98;;
25824;SDS011;13658;44.534;18.694;2023-04-05T04:03:22;23.80;;;15.70;;
25824;SDS011;13658;44.534;18.694;2023-04-05T04:05:50;21.83;;;15.05;;
25824;SDS011;13658;44.534;18.694;2023-04-05T04:08:18;23.55;;;15.60;;
25824;SDS011;13658;44.534;18.694;2023-04-05T04:10:44;23.55;;;15.07;;
25824;SDS011;13658;44.534;18.694;2023-04-05T04:13:18;23.00;;;14.95;;
25824;SDS011;13658;44.534;18.694;2023-04-05T04:15:47;21.92;;;14.00;;
25824;SDS011;13658;44.534;18.694;2023-04-05T04:18:27;26.05;;;14.45;;
25824;SDS011;13658;44.534;18.694;2023-04-05T04:21:13;25.60;;;15.27;;
25824;SDS011;13658;44.534;18.694;2023-04-05T04:24:02;17.77;;;11.20;;
25824;SDS011;13658;44.534;18.694;2023-04-05T04:29:36;16.52;;;9.98;;
25824;SDS011;13658;44.534;18.694;2023-04-05T04:32:42;14.57;;;8.93;;
25824;SDS011;13658;44.534;18.694;2023-04-05T04:35:37;14.55;;;9.55;;
25824;SDS011;13658;44.534;18.694;2023-04-05T04:38:16;12.45;;;8.13;;
25824;SDS011;13658;44.534;18.694;2023-04-05T04:41:06;12.38;;;8.35;;
25824;SDS011;13658;44.534;18.694;2023-04-05T04:44:09;13.80;;;7.80;;
25824;SDS011;13658;44.534;18.694;2023-04-05T04:46:57;12.35;;;8.43;;
25824;SDS011;13658;44.534;18.694;2023-04-05T04:49:46;15.38;;;9.23;;
25824;SDS011;13658;44.534;18.694;2023-04-05T04:52:13;14.98;;;8.90;;
25824;SDS011;13658;44.534;18.694;2023-04-05T04:54:40;14.32;;;9.00;;
25824;SDS011;13658;44.534;18.694;2023-04-05T04:57:07;16.48;;;9.38;;
25824;SDS011;13658;44.534;18.694;2023-04-05T04:59:32;15.10;;;9.52;;
25824;SDS011;13658;44.534;18.694;2023-04-05T05:02:02;10.07;;;6.43;;
25824;SDS011;13658;44.534;18.694;2023-04-05T05:04:28;13.63;;;7.13;;
25824;SDS011;13658;44.534;18.694;2023-04-05T05:06:54;15.35;;;11.00;;
25824;SDS011;13658;44.534;18.694;2023-04-05T05:09:20;15.35;;;8.93;;
25824;SDS011;13658;44.534;18.694;2023-04-05T05:11:50;11.65;;;7.20;;
25824;SDS011;13658;44.534;18.694;2023-04-05T05:14:16;11.77;;;7.50;;
25824;SDS011;13658;44.534;18.694;2023-04-05T05:16:42;16.67;;;8.13;;
25824;SDS011;13658;44.534;18.694;2023-04-05T05:19:08;12.13;;;7.15;;
25824;SDS011;13658;44.534;18.694;2023-04-05T05:21:54;11.07;;;8.52;;
25824;SDS011;13658;44.534;18.694;2023-04-05T05:24:20;14.15;;;8.00;;
25824;SDS011;13658;44.534;18.694;2023-04-05T05:26:46;17.00;;;9.75;;
25824;SDS011;13658;44.534;18.694;2023-04-05T05:29:12;13.75;;;9.18;;
25824;SDS011;13658;44.534;18.694;2023-04-05T05:31:42;12.02;;;9.07;;
25824;SDS011;13658;44.534;18.694;2023-04-05T05:34:08;10.75;;;6.78;;
25824;SDS011;13658;44.534;18.694;2023-04-05T05:36:36;13.15;;;7.50;;
25824;SDS011;13658;44.534;18.694;2023-04-05T05:39:02;14.18;;;8.05;;
25824;SDS011;13658;44.534;18.694;2023-04-05T05:41:30;15.85;;;11.00;;
25824;SDS011;13658;44.534;18.694;2023-04-05T05:43:56;13.52;;;8.23;;
25824;SDS011;13658;44.534;18.694;2023-04-05T05:46:22;12.77;;;7.20;;
25824;SDS011;13658;44.534;18.694;2023-04-05T05:48:48;14.52;;;7.50;;
25824;SDS011;13658;44.534;18.694;2023-04-05T05:51:16;9.77;;;6.97;;
25824;SDS011;13658;44.534;18.694;2023-04-05T05:53:43;13.45;;;6.70;;
25824;SDS011;13658;44.534;18.694;2023-04-05T05:56:11;14.02;;;8.10;;
25824;SDS011;13658;44.534;18.694;2023-04-05T05:58:37;10.55;;;6.15;;
25824;SDS011;13658;44.534;18.694;2023-04-05T06:01:05;9.82;;;7.25;;
25824;SDS011;13658;44.534;18.694;2023-04-05T06:03:31;16.45;;;10.32;;
25824;SDS011;13658;44.534;18.694;2023-04-05T06:05:58;17.77;;;10.70;;
25824;SDS011;13658;44.534;18.694;2023-04-05T06:08:27;19.05;;;10.32;;
25824;SDS011;13658;44.534;18.694;2023-04-05T06:10:53;11.70;;;7.75;;
25824;SDS011;13658;44.534;18.694;2023-04-05T06:13:19;16.55;;;9.50;;
25824;SDS011;13658;44.534;18.694;2023-04-05T06:15:48;17.08;;;13.52;;
25824;SDS011;13658;44.534;18.694;2023-04-05T06:18:15;13.95;;;9.88;;
25824;SDS011;13658;44.534;18.694;2023-04-05T06:20:42;10.60;;;6.47;;
25824;SDS011;13658;44.534;18.694;2023-04-05T06:23:09;14.50;;;7.43;;
25824;SDS011;13658;44.534;18.694;2023-04-05T06:25:35;12.10;;;7.00;;
25824;SDS011;13658;44.534;18.694;2023-04-05T06:28:02;12.00;;;7.45;;
25824;SDS011;13658;44.534;18.694;2023-04-05T06:30:29;12.77;;;7.07;;
25824;SDS011;13658;44.534;18.694;2023-04-05T06:32:55;11.98;;;6.50;;
25824;SDS011;13658;44.534;18.694;2023-04-05T06:35:22;10.90;;;6.68;;
25824;SDS011;13658;44.534;18.694;2023-04-05T06:37:49;12.98;;;7.10;;
25824;SDS011;13658;44.534;18.694;2023-04-05T06:40:15;14.18;;;7.63;;
25824;SDS011;13658;44.534;18.694;2023-04-05T06:42:42;10.52;;;6.72;;
25824;SDS011;13658;44.534;18.694;2023-04-05T06:45:13;11.65;;;5.88;;
25824;SDS011;13658;44.534;18.694;2023-04-05T06:47:40;11.23;;;6.60;;
25824;SDS011;13658;44.534;18.694;2023-04-05T06:50:06;9.63;;;6.03;;
25824;SDS011;13658;44.534;18.694;2023-04-05T06:52:34;8.45;;;6.28;;
25824;SDS011;13658;44.534;18.694;2023-04-05T06:55:00;11.25;;;6.63;;
25824;SDS011;13658;44.534;18.694;2023-04-05T06:57:26;9.93;;;5.78;;
25824;SDS011;13658;44.534;18.694;2023-04-05T06:59:52;12.57;;;6.22;;
25824;SDS011;13658;44.534;18.694;2023-04-05T07:02:19;8.98;;;5.45;;
25824;SDS011;13658;44.534;18.694;2023-04-05T07:04:45;9.52;;;5.85;;
25824;SDS011;13658;44.534;18.694;2023-04-05T07:07:12;9.52;;;5.82;;
25824;SDS011;13658;44.534;18.694;2023-04-05T07:09:38;7.20;;;5.07;;
25824;SDS011;13658;44.534;18.694;2023-04-05T07:12:05;8.02;;;6.13;;
25824;SDS011;13658;44.534;18.694;2023-04-05T07:14:33;9.65;;;5.70;;
25824;SDS011;13658;44.534;18.694;2023-04-05T07:17:01;16.15;;;7.78;;
25824;SDS011;13658;44.534;18.694;2023-04-05T07:19:28;11.50;;;6.65;;
25824;SDS011;13658;44.534;18.694;2023-04-05T07:21:55;10.80;;;5.95;;
25824;SDS011;13658;44.534;18.694;2023-04-05T07:24:21;9.30;;;6.10;;
25824;SDS011;13658;44.534;18.694;2023-04-05T07:26:47;8.68;;;6.20;;
25824;SDS011;13658;44.534;18.694;2023-04-05T07:29:13;9.40;;;6.00;;
25824;SDS011;13658;44.534;18.694;2023-04-05T07:31:40;11.80;;;7.35;;
25824;SDS011;13658;44.534;18.694;2023-04-05T07:34:06;12.40;;;6.43;;
25824;SDS011;13658;44.534;18.694;2023-04-05T07:36:32;10.10;;;5.63;;
25824;SDS011;13658;44.534;18.694;2023-04-05T07:38:59;9.60;;;6.13;;
25824;SDS011;13658;44.534;18.694;2023-04-05T07:41:26;12.25;;;7.45;;
25824;SDS011;13658;44.534;18.694;2023-04-05T07:43:56;13.48;;;8.70;;
25824;SDS011;13658;44.534;18.694;2023-04-05T07:46:22;11.88;;;6.57;;
25824;SDS011;13658;44.534;18.694;2023-04-05T07:48:48;7.70;;;5.85;;
25824;SDS011;13658;44.534;18.694;2023-04-05T07:51:14;8.80;;;6.13;;
25824;SDS011;13658;44.534;18.694;2023-04-05T07:53:41;8.88;;;6.25;;
25824;SDS011;13658;44.534;18.694;2023-04-05T07:56:07;11.15;;;7.03;;
25824;SDS011;13658;44.534;18.694;2023-04-05T07:58:35;12.25;;;8.50;;
25824;SDS011;13658;44.534;18.694;2023-04-05T08:01:12;10.52;;;6.82;;
25824;SDS011;13658;44.534;18.694;2023-04-05T08:03:38;8.15;;;5.78;;
25824;SDS011;13658;44.534;18.694;2023-04-05T08:06:11;8.07;;;5.65;;
25824;SDS011;13658;44.534;18.694;2023-04-05T08:08:38;7.97;;;5.63;;
25824;SDS011;13658;44.534;18.694;2023-04-05T08:11:04;11.00;;;6.68;;
25824;SDS011;13658;44.534;18.694;2023-04-05T08:13:30;13.82;;;7.43;;
25824;SDS011;13658;44.534;18.694;2023-04-05T08:15:58;12.30;;;7.85;;
25824;SDS011;13658;44.534;18.694;2023-04-05T08:18:28;11.27;;;6.95;;
25824;SDS011;13658;44.534;18.694;2023-04-05T08:20:55;15.50;;;9.68;;
25824;SDS011;13658;44.534;18.694;2023-04-05T08:23:21;16.33;;;8.75;;
25824;SDS011;13658;44.534;18.694;2023-04-05T08:25:48;15.52;;;9.63;;
25824;SDS011;13658;44.534;18.694;2023-04-05T08:28:14;21.23;;;11.15;;
25824;SDS011;13658;44.534;18.694;2023-04-05T08:30:40;14.25;;;9.45;;
25824;SDS011;13658;44.534;18.694;2023-04-05T08:33:06;19.98;;;10.80;;
25824;SDS011;13658;44.534;18.694;2023-04-05T08:35:35;16.02;;;10.13;;
25824;SDS011;13658;44.534;18.694;2023-04-05T08:38:02;12.05;;;8.00;;
25824;SDS011;13658;44.534;18.694;2023-04-05T08:40:49;15.70;;;8.25;;
25824;SDS011;13658;44.534;18.694;2023-04-05T08:43:27;12.45;;;8.27;;
25824;SDS011;13658;44.534;18.694;2023-04-05T08:46:06;13.57;;;7.75;;
25824;SDS011;13658;44.534;18.694;2023-04-05T08:48:34;13.77;;;7.93;;
25824;SDS011;13658;44.534;18.694;2023-04-05T08:51:00;11.45;;;7.05;;
25824;SDS011;13658;44.534;18.694;2023-04-05T08:53:26;14.85;;;7.88;;
25824;SDS011;13658;44.534;18.694;2023-04-05T08:55:54;23.13;;;10.30;;
25824;SDS011;13658;44.534;18.694;2023-04-05T08:58:22;9.75;;;6.70;;
25824;SDS011;13658;44.534;18.694;2023-04-05T09:00:49;12.52;;;8.07;;
25824;SDS011;13658;44.534;18.694;2023-04-05T09:03:17;11.30;;;7.57;;
25824;SDS011;13658;44.534;18.694;2023-04-05T09:05:53;9.50;;;6.60;;
25824;SDS011;13658;44.534;18.694;2023-04-05T09:08:22;47.17;;;27.58;;
25824;SDS011;13658;44.534;18.694;2023-04-05T09:10:51;16.85;;;10.85;;
25824;SDS011;13658;44.534;18.694;2023-04-05T09:13:18;14.73;;;10.23;;
25824;SDS011;13658;44.534;18.694;2023-04-05T09:15:44;14.75;;;9.32;;
25824;SDS011;13658;44.534;18.694;2023-04-05T09:18:11;20.70;;;10.82;;
25824;SDS011;13658;44.534;18.694;2023-04-05T09:20:37;12.35;;;8.70;;
25824;SDS011;13658;44.534;18.694;2023-04-05T09:23:02;18.63;;;10.07;;
25824;SDS011;13658;44.534;18.694;2023-04-05T09:25:38;15.80;;;10.48;;
25824;SDS011;13658;44.534;18.694;2023-04-05T09:28:09;12.82;;;8.70;;
25824;SDS011;13658;44.534;18.694;2023-04-05T09:30:36;12.27;;;8.55;;
25824;SDS011;13658;44.534;18.694;2023-04-05T09:33:06;13.32;;;8.82;;
25824;SDS011;13658;44.534;18.694;2023-04-05T09:35:35;11.55;;;6.88;;
25824;SDS011;13658;44.534;18.694;2023-04-05T09:38:02;11.15;;;7.70;;
25824;SDS011;13658;44.534;18.694;2023-04-05T09:40:44;10.38;;;7.55;;
25824;SDS011;13658;44.534;18.694;2023-04-05T09:43:37;12.82;;;8.15;;
25824;SDS011;13658;44.534;18.694;2023-04-05T09:46:06;12.98;;;8.70;;
25824;SDS011;13658;44.534;18.694;2023-04-05T09:48:59;14.48;;;8.65;;
25824;SDS011;13658;44.534;18.694;2023-04-05T09:51:33;10.77;;;7.28;;
25824;SDS011;13658;44.534;18.694;2023-04-05T09:54:03;12.85;;;8.55;;
25824;SDS011;13658;44.534;18.694;2023-04-05T09:56:31;14.00;;;9.70;;
25824;SDS011;13658;44.534;18.694;2023-04-05T09:59:00;13.25;;;9.10;;
25824;SDS011;13658;44.534;18.694;2023-04-05T10:01:31;12.65;;;8.73;;
25824;SDS011;13658;44.534;18.694;2023-04-05T10:03:58;17.30;;;10.55;;
25824;SDS011;13658;44.534;18.694;2023-04-05T10:06:57;18.73;;;11.52;;
25824;SDS011;13658;44.534;18.694;2023-04-05T10:09:17;15.18;;;10.23;;
25824;SDS011;13658;44.534;18.694;2023-04-05T10:11:43;14.27;;;9.75;;
25824;SDS011;13658;44.534;18.694;2023-04-05T10:14:10;14.82;;;9.80;;
25824;SDS011;13658;44.534;18.694;2023-04-05T10:16:42;16.17;;;9.85;;
25824;SDS011;13658;44.534;18.694;2023-04-05T10:19:22;12.75;;;8.70;;
25824;SDS011;13658;44.534;18.694;2023-04-05T10:21:53;17.70;;;9.68;;
25824;SDS011;13658;44.534;18.694;2023-04-05T10:24:33;12.60;;;8.85;;
25824;SDS011;13658;44.534;18.694;2023-04-05T10:30:02;9.35;;;6.72;;
25824;SDS011;13658;44.534;18.694;2023-04-05T10:35:27;14.88;;;8.50;;
25824;SDS011;13658;44.534;18.694;2023-04-05T10:40:56;11.98;;;7.57;;
25824;SDS011;13658;44.534;18.694;2023-04-05T10:43:38;14.63;;;8.57;;
25824;SDS011;13658;44.534;18.694;2023-04-05T10:46:05;12.32;;;6.80;;
25824;SDS011;13658;44.534;18.694;2023-04-05T10:51:16;12.82;;;7.00;;
25824;SDS011;13658;44.534;18.694;2023-04-05T10:53:45;11.18;;;7.47;;
25824;SDS011;13658;44.534;18.694;2023-04-05T10:56:12;12.52;;;8.05;;
25824;SDS011;13658;44.534;18.694;2023-04-05T10:58:38;11.02;;;7.25;;
25824;SDS011;13658;44.534;18.694;2023-04-05T11:01:06;13.73;;;7.35;;
25824;SDS011;13658;44.534;18.694;2023-04-05T11:03:40;12.10;;;8.10;;
25824;SDS011;13658;44.534;18.694;2023-04-05T11:06:16;9.70;;;7.38;;
25824;SDS011;13658;44.534;18.694;2023-04-05T11:08:56;12.23;;;8.48;;
25824;SDS011;13658;44.534;18.694;2023-04-05T11:11:24;14.73;;;9.50;;
25824;SDS011;13658;44.534;18.694;2023-04-05T11:13:52;16.92;;;10.43;;
25824;SDS011;13658;44.534;18.694;2023-04-05T11:16:19;14.13;;;9.40;;
25824;SDS011;13658;44.534;18.694;2023-04-05T11:18:47;17.33;;;9.80;;
25824;SDS011;13658;44.534;18.694;2023-04-05T11:21:24;13.00;;;7.90;;
25824;SDS011;13658;44.534;18.694;2023-04-05T11:24:00;13.40;;;8.07;;
25824;SDS011;13658;44.534;18.694;2023-04-05T11:29:05;15.48;;;9.25;;
25824;SDS011;13658;44.534;18.694;2023-04-05T11:31:32;16.17;;;9.90;;
25824;SDS011;13658;44.534;18.694;2023-04-05T11:33:58;14.45;;;8.88;;
25824;SDS011;13658;44.534;18.694;2023-04-05T11:36:49;14.98;;;9.05;;
25824;SDS011;13658;44.534;18.694;2023-04-05T11:41:48;12.70;;;9.10;;
25824;SDS011;13658;44.534;18.694;2023-04-05T11:44:17;22.80;;;12.43;;
25824;SDS011;13658;44.534;18.694;2023-04-05T11:46:45;19.30;;;11.88;;
25824;SDS011;13658;44.534;18.694;2023-04-05T11:49:11;11.82;;;7.85;;
25824;SDS011;13658;44.534;18.694;2023-04-05T11:51:41;13.00;;;9.27;;
25824;SDS011;13658;44.534;18.694;2023-04-05T11:54:10;11.38;;;7.57;;
25824;SDS011;13658;44.534;18.694;2023-04-05T11:56:36;10.52;;;7.20;;
25824;SDS011;13658;44.534;18.694;2023-04-05T11:59:02;12.65;;;7.63;;
25824;SDS011;13658;44.534;18.694;2023-04-05T12:01:28;12.32;;;8.50;;
25824;SDS011;13658;44.534;18.694;2023-04-05T12:03:55;12.43;;;8.25;;
25824;SDS011;13658;44.534;18.694;2023-04-05T12:06:22;16.98;;;11.20;;
25824;SDS011;13658;44.534;18.694;2023-04-05T12:08:49;18.58;;;11.15;;
25824;SDS011;13658;44.534;18.694;2023-04-05T12:11:16;17.55;;;9.80;;
25824;SDS011;13658;44.534;18.694;2023-04-05T12:13:52;16.67;;;9.23;;
25824;SDS011;13658;44.534;18.694;2023-04-05T12:16:19;14.90;;;9.10;;
25824;SDS011;13658;44.534;18.694;2023-04-05T12:18:51;16.33;;;9.98;;
25824;SDS011;13658;44.534;18.694;2023-04-05T12:21:22;13.20;;;8.88;;
25824;SDS011;13658;44.534;18.694;2023-04-05T12:23:48;18.08;;;10.38;;
25824;SDS011;13658;44.534;18.694;2023-04-05T12:26:15;19.80;;;9.48;;
25824;SDS011;13658;44.534;18.694;2023-04-05T12:28:49;15.77;;;9.30;;
25824;SDS011;13658;44.534;18.694;2023-04-05T12:31:17;16.17;;;10.80;;
25824;SDS011;13658;44.534;18.694;2023-04-05T12:33:59;14.02;;;8.80;;
25824;SDS011;13658;44.534;18.694;2023-04-05T12:36:26;15.38;;;10.15;;
25824;SDS011;13658;44.534;18.694;2023-04-05T12:38:55;18.33;;;10.60;;
25824;SDS011;13658;44.534;18.694;2023-04-05T12:41:30;12.95;;;8.82;;
25824;SDS011;13658;44.534;18.694;2023-04-05T12:43:58;13.35;;;9.52;;
25824;SDS011;13658;44.534;18.694;2023-04-05T12:46:39;11.50;;;7.80;;
25824;SDS011;13658;44.534;18.694;2023-04-05T12:49:09;11.18;;;7.00;;
25824;SDS011;13658;44.534;18.694;2023-04-05T12:54:19;17.15;;;9.82;;
25824;SDS011;13658;44.534;18.694;2023-04-05T12:56:48;16.88;;;11.23;;
25824;SDS011;13658;44.534;18.694;2023-04-05T12:59:17;12.00;;;8.43;;
25824;SDS011;13658;44.534;18.694;2023-04-05T13:01:43;14.93;;;9.77;;
25824;SDS011;13658;44.534;18.694;2023-04-05T13:04:09;14.43;;;9.30;;
25824;SDS011;13658;44.534;18.694;2023-04-05T13:06:35;14.13;;;8.95;;
25824;SDS011;13658;44.534;18.694;2023-04-05T13:09:01;14.40;;;9.18;;
25824;SDS011;13658;44.534;18.694;2023-04-05T13:11:27;14.90;;;8.73;;
25824;SDS011;13658;44.534;18.694;2023-04-05T13:13:53;16.90;;;7.93;;
25824;SDS011;13658;44.534;18.694;2023-04-05T13:16:19;13.38;;;7.85;;
25824;SDS011;13658;44.534;18.694;2023-04-05T13:18:46;16.10;;;9.45;;
25824;SDS011;13658;44.534;18.694;2023-04-05T13:21:12;17.00;;;12.45;;
25824;SDS011;13658;44.534;18.694;2023-04-05T13:23:38;15.20;;;9.32;;
25824;SDS011;13658;44.534;18.694;2023-04-05T13:26:05;13.80;;;7.43;;
25824;SDS011;13658;44.534;18.694;2023-04-05T13:28:32;19.27;;;11.25;;
25824;SDS011;13658;44.534;18.694;2023-04-05T13:30:59;15.82;;;11.50;;
25824;SDS011;13658;44.534;18.694;2023-04-05T13:33:26;13.38;;;8.60;;
25824;SDS011;13658;44.534;18.694;2023-04-05T13:35:52;13.02;;;7.90;;
25824;SDS011;13658;44.534;18.694;2023-04-05T13:38:18;15.60;;;9.50;;
25824;SDS011;13658;44.534;18.694;2023-04-05T13:40:46;12.10;;;8.73;;
25824;SDS011;13658;44.534;18.694;2023-04-05T13:43:12;12.07;;;8.20;;
25824;SDS011;13658;44.534;18.694;2023-04-05T13:45:38;17.13;;;10.18;;
25824;SDS011;13658;44.534;18.694;2023-04-05T13:48:04;16.10;;;9.73;;
25824;SDS011;13658;44.534;18.694;2023-04-05T13:50:30;13.90;;;9.20;;
25824;SDS011;13658;44.534;18.694;2023-04-05T13:52:56;30.27;;;13.85;;
25824;SDS011;13658;44.534;18.694;2023-04-05T13:55:22;17.33;;;10.38;;
25824;SDS011;13658;44.534;18.694;2023-04-05T13:57:48;12.02;;;7.97;;
25824;SDS011;13658;44.534;18.694;2023-04-05T14:00:14;14.15;;;7.93;;
25824;SDS011;13658;44.534;18.694;2023-04-05T14:02:40;13.10;;;8.75;;
25824;SDS011;13658;44.534;18.694;2023-04-05T14:05:06;16.85;;;9.07;;
25824;SDS011;13658;44.534;18.694;2023-04-05T14:07:33;14.60;;;8.65;;
25824;SDS011;13658;44.534;18.694;2023-04-05T14:10:00;10.93;;;7.18;;
25824;SDS011;13658;44.534;18.694;2023-04-05T14:12:26;10.93;;;7.28;;
25824;SDS011;13658;44.534;18.694;2023-04-05T14:14:52;12.40;;;8.07;;
25824;SDS011;13658;44.534;18.694;2023-04-05T14:17:17;13.75;;;8.45;;
25824;SDS011;13658;44.534;18.694;2023-04-05T14:19:43;13.60;;;8.75;;
25824;SDS011;13658;44.534;18.694;2023-04-05T14:22:09;14.05;;;8.85;;
25824;SDS011;13658;44.534;18.694;2023-04-05T14:24:35;15.43;;;10.25;;
25824;SDS011;13658;44.534;18.694;2023-04-05T14:27:01;12.57;;;8.57;;
25824;SDS011;13658;44.534;18.694;2023-04-05T14:29:27;15.52;;;10.00;;
25824;SDS011;13658;44.534;18.694;2023-04-05T14:31:54;11.40;;;8.10;;
25824;SDS011;13658;44.534;18.694;2023-04-05T14:34:20;13.65;;;9.10;;
25824;SDS011;13658;44.534;18.694;2023-04-05T14:36:46;15.85;;;8.85;;
25824;SDS011;13658;44.534;18.694;2023-04-05T14:39:12;12.23;;;8.90;;
25824;SDS011;13658;44.534;18.694;2023-04-05T14:41:38;14.48;;;8.57;;
25824;SDS011;13658;44.534;18.694;2023-04-05T14:44:05;19.02;;;10.85;;
25824;SDS011;13658;44.534;18.694;2023-04-05T14:46:31;14.93;;;9.70;;
25824;SDS011;13658;44.534;18.694;2023-04-05T14:48:57;16.13;;;9.85;;
25824;SDS011;13658;44.534;18.694;2023-04-05T14:51:23;14.18;;;8.35;;
25824;SDS011;13658;44.534;18.694;2023-04-05T14:53:49;16.48;;;11.30;;
25824;SDS011;13658;44.534;18.694;2023-04-05T14:56:16;19.80;;;10.30;;
25824;SDS011;13658;44.534;18.694;2023-04-05T14:58:41;15.63;;;9.27;;